Time;durP1;ratioP1;P1;durP2;ratioP2;P2;SDS_P1;SDS_P2;PMS_P1;PMS_P2;Temp;Humidity;BMP_temperature;BMP_pressure;BME280_temperature;BME280_humidity;BME280_pressure;Samples;Min_cycle;Max_cycle;Signal;HPM_P1;HPM_P2
2022/06/23 00:00:36;;;;;;;33.00;20.80;;;;;;;21.81;72.57;98734.69;5156183;28;20073;-72
2022/06/23 00:03:32;;;;;;;32.75;20.25;;;;;;;21.66;72.42;98728.03;5160574;28;20575;-72
2022/06/23 00:06:38;;;;;;;37.55;21.95;;;;;;;21.83;71.69;98728.28;5160883;28;20448;-72
2022/06/23 00:09:43;;;;;;;34.50;20.45;;;;;;;21.54;72.26;98728.72;5160858;28;20057;-72
2022/06/23 00:12:38;;;;;;;31.98;19.73;;;;;;;21.53;71.95;98731.66;5159740;28;20428;-72
2022/06/23 00:15:37;;;;;;;32.58;19.98;;;;;;;21.23;73.52;98715.28;5159501;28;20196;-71
2022/06/23 00:18:34;;;;;;;31.42;18.33;;;;;;;21.47;72.25;98725.28;5160018;28;20081;-71
2022/06/23 00:21:31;;;;;;;36.55;19.67;;;;;;;21.36;72.25;98723.31;5159815;28;20494;-71
2022/06/23 00:24:25;;;;;;;46.65;19.45;;;;;;;21.28;71.81;98710.03;5159696;28;20784;-72
2022/06/23 00:27:18;;;;;;;40.33;19.13;;;;;;;21.28;71.42;98716.25;5160926;28;20121;-71
2022/06/23 00:30:24;;;;;;;40.75;18.60;;;;;;;21.16;71.34;98722.56;5144372;28;20420;-70
2022/06/23 00:33:24;;;;;;;30.25;17.33;;;;;;;21.06;71.53;98710.44;5159910;28;20101;-71
2022/06/23 00:36:24;;;;;;;26.48;16.90;;;;;;;20.95;71.10;98716.50;5158517;28;20050;-71
2022/06/23 00:39:42;;;;;;;29.85;17.77;;;;;;;20.92;71.58;98722.31;5159450;28;20515;-71
2022/06/23 00:42:37;;;;;;;31.05;17.58;;;;;;;20.87;71.32;98697.91;5159044;28;20065;-72
2022/06/23 00:45:34;;;;;;;34.58;16.90;;;;;;;20.97;71.11;98709.03;5159186;28;20092;-72
2022/06/23 00:48:31;;;;;;;32.85;16.85;;;;;;;20.85;71.15;98705.38;5159562;28;20169;-72
2022/06/23 00:51:28;;;;;;;26.42;16.50;;;;;;;20.81;71.21;98715.75;5159364;28;20441;-71
2022/06/23 00:54:27;;;;;;;32.92;16.73;;;;;;;20.82;71.20;98714.72;5160556;28;20112;-71
2022/06/23 00:57:17;;;;;;;32.63;16.65;;;;;;;20.80;70.61;98716.00;5160283;28;20098;-72
2022/06/23 01:00:23;;;;;;;28.85;16.75;;;;;;;20.65;70.68;98722.47;5160516;28;20061;-71
2022/06/23 01:03:24;;;;;;;32.42;16.25;;;;;;;20.59;71.14;98733.28;5159556;28;20487;-70
2022/06/23 01:06:23;;;;;;;29.00;15.90;;;;;;;20.33;71.95;98708.13;5157345;28;20062;-70
2022/06/23 01:09:23;;;;;;;36.13;17.15;;;;;;;20.34;72.98;98727.78;5159376;28;20050;-71
2022/06/23 01:12:29;;;;;;;32.53;17.48;;;;;;;20.42;71.49;98738.31;5159004;28;20057;-71
2022/06/23 01:15:37;;;;;;;35.58;16.55;;;;;;;20.43;73.40;98718.44;5159346;28;20066;-70
2022/06/23 01:18:49;;;;;;;35.25;20.52;;;;;;;20.53;73.89;98718.84;5160495;28;20057;-72
2022/06/23 01:21:44;;;;;;;33.28;19.40;;;;;;;20.52;73.84;98732.50;5159092;28;20049;-72
2022/06/23 01:25:05;;;;;;;31.65;17.63;;;;;;;20.58;72.49;98734.34;5157108;28;20054;-72
2022/06/23 01:28:09;;;;;;;31.50;17.48;;;;;;;20.52;72.03;98733.31;5162544;28;20540;-72
2022/06/23 01:31:26;;;;;;;33.58;17.48;;;;;;;20.48;71.76;98744.72;5160436;28;20122;-72
2022/06/23 01:34:24;;;;;;;36.25;16.45;;;;;;;20.43;71.85;98756.13;5162923;28;20619;-72
2022/06/23 01:37:46;;;;;;;30.95;16.35;;;;;;;20.32;71.40;98752.22;5158610;28;20571;-72
2022/06/23 01:40:53;;;;;;;30.17;15.68;;;;;;;20.20;70.97;98767.41;5160246;28;20077;-72
2022/06/23 01:43:52;;;;;;;40.92;17.40;;;;;;;19.93;71.90;98753.16;5160109;28;20631;-72
2022/06/23 01:46:46;;;;;;;26.80;14.68;;;;;;;20.08;70.52;98763.69;5172963;28;20054;-72
2022/06/23 01:49:43;;;;;;;31.23;18.17;;;;;;;19.90;73.82;98753.56;5175610;28;20050;-72
2022/06/23 01:52:33;;;;;;;30.17;18.75;;;;;;;19.93;73.77;98745.94;5161098;28;20110;-72
2022/06/23 01:55:29;;;;;;;23.70;17.52;;;;;;;20.13;72.91;98778.19;5162113;28;20527;-72
2022/06/23 01:58:22;;;;;;;24.77;16.38;;;;;;;20.17;72.93;98775.91;5162126;28;20062;-72
2022/06/23 02:01:19;;;;;;;31.13;17.45;;;;;;;20.09;72.81;98763.47;5161319;28;20048;-72
2022/06/23 02:04:20;;;;;;;28.95;18.30;;;;;;;20.27;72.81;98772.75;5161858;28;20129;-72
2022/06/23 02:07:35;;;;;;;29.30;16.70;;;;;;;20.24;71.98;98776.69;5161453;28;20080;-72
2022/06/23 02:10:47;;;;;;;31.67;14.82;;;;;;;19.97;71.50;98762.47;5164684;28;20054;-72
2022/06/23 02:13:43;;;;;;;31.25;15.55;;;;;;;20.14;71.91;98762.84;5156633;28;20065;-72
2022/06/23 02:16:39;;;;;;;28.92;15.50;;;;;;;20.25;71.38;98761.38;5161774;28;20080;-72
2022/06/23 02:19:39;;;;;;;34.17;17.90;;;;;;;20.10;71.66;98745.47;5160248;28;20061;-72
2022/06/23 02:22:36;;;;;;;32.22;15.35;;;;;;;19.91;72.15;98761.44;5161624;28;20151;-72
2022/06/23 02:25:32;;;;;;;27.33;13.63;;;;;;;19.78;71.99;98752.56;5162719;28;20058;-70
2022/06/23 02:28:44;;;;;;;28.00;14.40;;;;;;;19.78;71.61;98763.34;5162305;28;20497;-70
2022/06/23 02:31:46;;;;;;;29.77;14.32;;;;;;;19.47;71.62;98754.03;5157613;28;20104;-70
2022/06/23 02:34:48;;;;;;;38.85;14.98;;;;;;;19.66;71.45;98769.31;5161396;28;20050;-71
2022/06/23 02:37:48;;;;;;;36.25;14.23;;;;;;;19.40;71.02;98737.03;5158893;28;20520;-70
2022/06/23 02:40:51;;;;;;;31.80;17.05;;;;;;;19.70;73.39;98762.53;5162020;28;20050;-71
2022/06/23 02:43:49;;;;;;;29.95;15.88;;;;;;;19.93;70.78;98758.53;5161750;28;20521;-71
2022/06/23 02:47:05;;;;;;;30.33;14.93;;;;;;;19.64;71.52;98763.34;5157936;28;20077;-70
2022/06/23 02:50:27;;;;;;;33.00;14.80;;;;;;;19.52;71.55;98759.59;5162478;28;20454;-70
2022/06/23 02:53:39;;;;;;;30.27;16.42;;;;;;;19.74;72.03;98772.88;5146947;28;20524;-70
2022/06/23 02:56:36;;;;;;;38.10;17.08;;;;;;;19.62;72.56;98772.63;5162123;28;20051;-71
2022/06/23 02:59:40;;;;;;;53.53;18.25;;;;;;;19.57;72.78;98777.78;5161542;28;20145;-71
2022/06/23 03:02:33;;;;;;;41.85;19.40;;;;;;;19.50;73.09;98785.84;5161849;28;20062;-71
2022/06/23 03:05:38;;;;;;;59.03;20.50;;;;;;;19.45;72.56;98785.66;5160777;28;20512;-70
2022/06/23 03:08:34;;;;;;;37.05;19.55;;;;;;;19.36;72.92;98785.00;5161692;28;20054;-72
2022/06/23 03:11:53;;;;;;;45.15;19.23;;;;;;;19.35;73.94;98780.69;5161430;28;20050;-72
2022/06/23 03:14:56;;;;;;;30.13;18.50;;;;;;;19.51;72.93;98787.53;5159634;28;20062;-72
2022/06/23 03:17:53;;;;;;;37.83;17.65;;;;;;;19.53;73.21;98768.47;5157687;28;20560;-72
2022/06/23 03:20:54;;;;;;;28.00;18.42;;;;;;;19.80;73.54;98789.00;5161309;28;20051;-72
2022/06/23 03:24:05;;;;;;;32.55;18.05;;;;;;;19.82;73.05;98769.94;5158268;28;20077;-72
2022/06/23 03:27:16;;;;;;;28.33;17.38;;;;;;;19.86;73.03;98792.69;5160405;28;20196;-72
2022/06/23 03:30:39;;;;;;;27.17;17.08;;;;;;;19.76;73.01;98785.03;5159225;28;20050;-72
2022/06/23 03:33:39;;;;;;;28.20;18.50;;;;;;;19.68;73.83;98779.88;5157828;28;20501;-72
2022/06/23 03:36:41;;;;;;;35.65;18.23;;;;;;;19.86;74.17;98803.47;5162087;28;20054;-72
2022/06/23 03:42:59;;;;;;;37.78;20.85;;;;;;;19.86;74.82;98790.84;5161171;28;20568;-72
2022/06/23 03:45:59;;;;;;;38.03;21.08;;;;;;;19.97;74.44;98816.31;5155791;28;20132;-71
2022/06/23 03:48:55;;;;;;;33.90;20.15;;;;;;;20.13;73.80;98823.94;5157731;28;20066;-72
2022/06/23 03:51:58;;;;;;;31.65;19.80;;;;;;;20.26;73.34;98825.75;5158800;28;20536;-72
2022/06/23 03:55:06;;;;;;;39.17;20.98;;;;;;;20.21;72.87;98800.53;5172252;28;20054;-72
2022/06/23 03:58:02;;;;;;;32.47;20.45;;;;;;;20.32;73.53;98816.03;5157828;28;20050;-72
2022/06/23 04:01:11;;;;;;;37.05;20.98;;;;;;;20.53;73.13;98823.88;5172739;28;20061;-72
2022/06/23 04:04:15;;;;;;;37.33;21.85;;;;;;;20.60;73.05;98823.84;5158483;28;20579;-72
2022/06/23 04:07:44;;;;;;;35.78;21.67;;;;;;;20.45;73.34;98829.44;5158907;28;20105;-72
2022/06/23 04:10:40;;;;;;;38.40;20.17;;;;;;;20.44;73.21;98827.81;5159966;28;20076;-72
2022/06/23 04:13:36;;;;;;;31.75;19.80;;;;;;;20.33;73.44;98831.97;5155007;28;20057;-75
2022/06/23 04:16:26;;;;;;;34.47;18.40;;;;;;;20.42;73.15;98822.59;5160895;28;20046;-73
2022/06/23 04:19:31;;;;;;;27.70;18.40;;;;;;;20.38;73.41;98829.47;5160521;28;20069;-74
2022/06/23 04:22:30;;;;;;;31.23;18.90;;;;;;;20.39;73.59;98835.66;5160525;28;20145;-73
2022/06/23 04:25:31;;;;;;;28.52;18.95;;;;;;;20.51;72.69;98831.34;5160192;28;20046;-72
2022/06/23 04:28:33;;;;;;;41.38;18.55;;;;;;;20.59;72.95;98836.47;5156988;28;20065;-73
2022/06/23 04:31:30;;;;;;;41.20;19.50;;;;;;;20.77;73.30;98834.97;5141880;28;20064;-72
2022/06/23 04:34:24;;;;;;;38.50;19.92;;;;;;;20.82;72.60;98816.28;5161497;28;20078;-71
2022/06/23 04:37:40;;;;;;;33.85;20.45;;;;;;;20.82;73.33;98824.38;5160323;28;20438;-70
2022/06/23 04:40:48;;;;;;;43.28;20.25;;;;;;;20.93;72.56;98821.03;5160791;28;20055;-69
2022/06/23 04:43:50;;;;;;;35.58;20.95;;;;;;;21.05;72.48;98816.59;5145903;28;20109;-72
2022/06/23 04:46:51;;;;;;;45.80;20.80;;;;;;;20.85;73.02;98813.16;5154730;28;20139;-70
2022/06/23 04:49:48;;;;;;;30.38;20.83;;;;;;;20.59;74.72;98831.09;5151513;28;20057;-72
2022/06/23 04:52:53;;;;;;;38.50;20.65;;;;;;;20.63;73.11;98821.56;5150445;28;20424;-73
2022/06/23 04:55:54;;;;;;;38.92;21.45;;;;;;;20.69;73.41;98822.56;5161581;28;20454;-73
2022/06/23 04:58:53;;;;;;;33.05;20.35;;;;;;;20.94;73.03;98832.63;5155804;28;20153;-73
2022/06/23 05:01:47;;;;;;;36.95;21.10;;;;;;;20.90;73.08;98829.53;5163985;28;20046;-72
2022/06/23 05:04:41;;;;;;;48.28;23.10;;;;;;;20.75;73.34;98810.09;5161361;28;20050;-73
2022/06/23 05:07:44;;;;;;;;;;;;;;;21.19;73.02;98838.06;5163786;28;20436;-71
2022/06/23 05:10:46;;;;;;;46.47;22.20;;;;;;;21.12;73.16;98832.72;5162103;28;20301;-71
2022/06/23 05:13:50;;;;;;;40.97;20.77;;;;;;;21.28;72.69;98834.91;5157001;28;20065;-71
2022/06/23 05:16:45;;;;;;;34.03;20.98;;;;;;;21.29;72.80;98844.69;5159644;28;20049;-71
2022/06/23 05:19:38;;;;;;;35.03;19.83;;;;;;;20.81;72.88;98796.59;5159677;28;20069;-71
2022/06/23 05:22:37;;;;;;;36.72;21.10;;;;;;;21.31;72.78;98834.47;5163659;28;20061;-70
2022/06/23 05:25:30;;;;;;;37.97;23.50;;;;;;;21.57;72.80;98844.31;5161858;28;20997;-70
2022/06/23 05:28:24;;;;;;;91.60;22.70;;;;;;;21.13;73.64;98838.97;5163448;28;20064;-70
2022/06/23 05:31:20;;;;;;;46.17;23.75;;;;;;;20.62;75.69;98841.44;5164030;28;20054;-70
2022/06/23 05:34:22;;;;;;;47.65;23.65;;;;;;;21.01;74.87;98839.63;5162467;28;20061;-70
2022/06/23 05:37:35;;;;;;;51.03;24.50;;;;;;;21.42;72.76;98851.03;5162002;28;20105;-71
2022/06/23 05:40:50;;;;;;;45.33;24.38;;;;;;;21.46;72.80;98860.38;5162837;28;20412;-70
2022/06/23 05:43:42;;;;;;;46.42;24.58;;;;;;;21.42;74.09;98849.16;5163418;28;20049;-71
2022/06/23 05:46:40;;;;;;;42.95;25.13;;;;;;;21.70;72.78;98850.66;5163261;28;20046;-71
2022/06/23 05:49:40;;;;;;;53.92;26.20;;;;;;;21.79;71.94;98846.66;5163524;28;20065;-71
2022/06/23 05:52:43;;;;;;;42.40;25.00;;;;;;;21.74;72.71;98849.16;5162122;28;20054;-70
2022/06/23 05:55:42;;;;;;;47.65;25.38;;;;;;;21.96;72.28;98852.31;5159735;28;20058;-71
2022/06/23 05:58:44;;;;;;;44.65;24.92;;;;;;;22.25;71.27;98834.59;5157243;28;20057;-70
2022/06/23 06:01:52;;;;;;;46.75;25.75;;;;;;;22.56;71.23;98852.59;5162503;28;20077;-70
2022/06/23 06:04:48;;;;;;;41.88;25.13;;;;;;;22.90;70.14;98845.72;5159648;28;20068;-70
2022/06/23 06:07:41;;;;;;;41.70;24.27;;;;;;;22.84;69.90;98843.09;5157246;28;20046;-70
2022/06/23 06:10:33;;;;;;;43.97;23.77;;;;;;;23.09;69.92;98848.44;5162669;28;20649;-70
2022/06/23 06:13:32;;;;;;;40.35;23.88;;;;;;;22.86;70.78;98851.81;5161827;28;20136;-70
2022/06/23 06:16:22;;;;;;;44.58;24.02;;;;;;;22.77;70.40;98843.19;5162517;28;20077;-70
2022/06/23 06:19:15;;;;;;;36.85;22.98;;;;;;;23.00;69.64;98841.69;5161061;28;20064;-70
2022/06/23 06:22:37;;;;;;;44.20;22.70;;;;;;;23.18;69.27;98844.38;5161214;28;20049;-70
2022/06/23 06:25:31;;;;;;;42.40;23.60;;;;;;;23.45;68.90;98856.47;5159428;28;20058;-70
2022/06/23 06:28:31;;;;;;;40.20;22.40;;;;;;;23.40;69.61;98856.31;5162237;28;20444;-71
2022/06/23 06:31:39;;;;;;;37.88;21.38;;;;;;;23.32;69.27;98843.13;5162308;28;20497;-71
2022/06/23 06:34:35;;;;;;;31.80;18.58;;;;;;;23.56;67.89;98845.91;5161954;28;20050;-71
2022/06/23 06:37:30;;;;;;;33.03;15.43;;;;;;;24.06;66.39;98854.47;5161984;28;20543;-71
2022/06/23 06:40:21;;;;;;;33.42;16.05;;;;;;;24.07;66.36;98863.41;5161677;28;20424;-71
2022/06/23 06:43:20;;;;;;;25.85;14.73;;;;;;;23.98;66.40;98862.13;5162209;28;20555;-71
2022/06/23 06:46:10;;;;;;;28.63;15.05;;;;;;;24.19;67.32;98866.97;5160076;28;20062;-71
2022/06/23 06:49:01;;;;;;;27.98;14.85;;;;;;;24.41;64.34;98853.69;5160777;28;20046;-71
2022/06/23 06:51:54;;;;;;;32.90;14.68;;;;;;;24.82;62.76;98859.97;5161359;28;20093;-71
2022/06/23 06:54:58;;;;;;;30.23;12.27;;;;;;;25.29;62.13;98859.84;5158704;28;20656;-71
2022/06/23 06:58:24;;;;;;;34.03;12.15;;;;;;;26.25;58.81;98874.28;5174182;28;20555;-70
2022/06/23 07:01:22;;;;;;;18.88;9.70;;;;;;;26.35;59.51;98872.78;5160336;28;20113;-71
2022/06/23 07:04:30;;;;;;;26.27;11.40;;;;;;;27.01;56.58;98870.97;5160118;28;20077;-71
2022/06/23 07:07:26;;;;;;;19.90;11.60;;;;;;;27.64;54.64;98869.50;5161230;28;20547;-71
2022/06/23 07:10:31;;;;;;;28.15;10.35;;;;;;;27.88;54.21;98871.91;5160960;28;20057;-71
2022/06/23 07:13:29;;;;;;;;;;;;;;;28.40;54.71;98865.78;5161561;28;20073;-71
2022/06/23 07:16:30;;;;;;;25.05;10.25;;;;;;;28.50;54.08;98852.22;5159946;28;19933;-71
2022/06/23 07:19:32;;;;;;;17.70;9.20;;;;;;;29.03;52.18;98863.13;5161043;28;20077;-71
2022/06/23 07:22:29;;;;;;;20.48;9.57;;;;;;;29.16;54.38;98862.63;5160068;28;20078;-70
2022/06/23 07:25:26;;;;;;;14.45;7.25;;;;;;;29.70;49.23;98853.19;5159795;28;20128;-71
2022/06/23 07:28:19;;;;;;;16.65;8.68;;;;;;;29.64;53.04;98852.38;5160340;28;20693;-71
2022/06/23 07:31:17;;;;;;;24.45;8.05;;;;;;;28.90;54.16;98847.22;5160910;28;20148;-71
2022/06/23 07:34:12;;;;;;;20.80;6.88;;;;;;;29.76;50.44;98852.09;5158453;28;20217;-71
2022/06/23 07:37:12;;;;;;;22.88;5.60;;;;;;;29.85;49.71;98849.66;5155729;28;20410;-71
2022/06/23 07:40:05;;;;;;;17.63;5.60;;;;;;;30.28;47.99;98840.06;5159055;28;20079;-71
2022/06/23 07:43:01;;;;;;;12.23;5.10;;;;;;;30.92;49.29;98837.69;5157272;28;20046;-71
2022/06/23 07:45:58;;;;;;;18.42;4.55;;;;;;;30.84;45.90;98834.44;5159464;28;20062;-71
2022/06/23 07:48:48;;;;;;;16.30;4.38;;;;;;;31.16;46.16;98832.34;5159687;28;20310;-71
2022/06/23 07:51:39;;;;;;;13.70;4.90;;;;;;;31.22;45.96;98831.22;5160594;28;20050;-71
2022/06/23 07:54:30;;;;;;;16.95;5.22;;;;;;;31.42;45.01;98833.06;5159777;28;20054;-71
2022/06/23 07:57:20;;;;;;;16.38;5.00;;;;;;;31.88;43.99;98827.25;5161154;28;20065;-71
2022/06/23 08:00:16;;;;;;;15.55;4.88;;;;;;;31.99;42.84;98818.66;5159347;28;20053;-71
2022/06/23 08:03:18;;;;;;;17.85;4.93;;;;;;;31.77;44.70;98827.31;5160743;28;20053;-71
2022/06/23 08:06:14;;;;;;;13.20;4.70;;;;;;;32.10;44.27;98827.59;5158593;28;20097;-71
2022/06/23 08:09:16;;;;;;;15.60;4.70;;;;;;;32.53;43.90;98827.72;5158526;28;20136;-71
2022/06/23 08:18:54;;;;;;;16.90;5.10;;;;;;;30.62;48.26;98804.66;5156888;28;20120;-71
2022/06/23 08:21:55;;;;;;;15.50;4.50;;;;;;;32.16;44.06;98793.53;5158807;28;20054;-71
2022/06/23 08:24:48;;;;;;;14.30;4.78;;;;;;;31.66;44.35;98805.75;5159793;28;20061;-71
2022/06/23 08:27:59;;;;;;;12.63;5.13;;;;;;;30.99;45.50;98811.63;5157115;28;20106;-71
2022/06/23 08:30:49;;;;;;;13.57;5.18;;;;;;;30.98;45.30;98793.56;5157903;28;20421;-71
2022/06/23 08:33:39;;;;;;;10.98;4.10;;;;;;;32.41;44.32;98799.84;5157749;28;20058;-71
2022/06/23 08:36:53;;;;;;;16.45;4.97;;;;;;;32.49;41.45;98797.31;5164228;28;20113;-71
2022/06/23 08:39:59;;;;;;;16.63;4.82;;;;;;;32.54;45.08;98793.66;5160248;28;20054;-71
2022/06/23 08:42:57;;;;;;;18.95;3.95;;;;;;;32.42;40.20;98787.75;5161788;28;20050;-71
2022/06/23 08:45:47;;;;;;;16.50;3.58;;;;;;;32.61;40.72;98783.16;5162466;28;20096;-71
2022/06/23 08:49:01;;;;;;;13.20;3.58;;;;;;;32.78;38.41;98779.09;5159823;28;20527;-71
2022/06/23 08:52:03;;;;;;;16.48;3.92;;;;;;;32.32;39.96;98772.25;5162445;28;20192;-71
2022/06/23 08:55:05;;;;;;;19.48;3.80;;;;;;;32.02;42.12;98768.72;5176084;28;20061;-71
2022/06/23 08:58:03;;;;;;;12.07;2.95;;;;;;;32.10;41.29;98770.00;5163664;28;20423;-71
2022/06/23 09:00:57;;;;;;;15.05;3.85;;;;;;;32.90;40.26;98774.00;5160347;28;20057;-71
2022/06/23 09:04:04;;;;;;;14.48;3.47;;;;;;;32.43;42.48;98770.22;5163392;28;20056;-71
2022/06/23 09:07:22;;;;;;;13.15;2.90;;;;;;;32.46;40.39;98773.19;5160137;28;20057;-71
2022/06/23 09:10:34;;;;;;;15.35;3.40;;;;;;;32.85;40.31;98760.31;5167095;28;20064;-71
2022/06/23 09:13:52;;;;;;;11.73;3.13;;;;;;;33.83;41.39;98769.53;5163154;28;21717;-71
2022/06/23 09:16:51;;;;;;;9.43;3.08;;;;;;;33.77;38.49;98768.00;5161978;28;20050;-70
2022/06/23 09:20:02;;;;;;;10.85;3.17;;;;;;;34.11;39.18;98753.13;5161002;28;20140;-71
2022/06/23 09:23:11;;;;;;;11.70;3.13;;;;;;;34.09;38.26;98758.94;5175164;28;20057;-72
2022/06/23 09:26:17;;;;;;;16.65;3.63;;;;;;;34.12;38.46;98752.81;5162234;28;20057;-70
2022/06/23 09:29:18;;;;;;;11.25;2.75;;;;;;;34.38;36.31;98744.88;5161623;28;20524;-70
2022/06/23 09:32:14;;;;;;;12.38;3.05;;;;;;;33.70;38.67;98744.78;5160857;28;20109;-71
2022/06/23 09:35:28;;;;;;;14.25;3.35;;;;;;;34.04;36.86;98739.78;5162173;28;20084;-70
2022/06/23 09:38:30;;;;;;;15.70;3.42;;;;;;;33.91;37.65;98741.38;5156928;28;20046;-71
2022/06/23 09:41:38;;;;;;;12.85;3.55;;;;;;;34.08;36.66;98737.22;5162330;28;20148;-71
2022/06/23 09:44:51;;;;;;;11.10;3.20;;;;;;;34.12;38.34;98724.50;5162482;28;20434;-70
2022/06/23 09:48:00;;;;;;;12.10;3.90;;;;;;;33.71;38.67;98735.41;5156644;28;20085;-71
2022/06/23 09:51:09;;;;;;;11.23;3.30;;;;;;;33.42;39.16;98728.19;5162917;28;20062;-70
2022/06/23 09:54:21;;;;;;;17.73;3.72;;;;;;;33.44;38.54;98728.69;5161398;28;20527;-73
2022/06/23 09:57:20;;;;;;;19.92;3.00;;;;;;;34.07;38.43;98727.31;5161348;28;20417;-71
2022/06/23 10:00:42;;;;;;;11.30;3.10;;;;;;;33.73;37.61;98722.19;5160354;28;20050;-72
2022/06/23 10:03:40;;;;;;;17.08;3.80;;;;;;;33.40;37.24;98719.41;5162384;28;20152;-71
2022/06/23 10:06:46;;;;;;;14.45;3.17;;;;;;;33.57;37.98;98714.19;5161112;28;20047;-74
2022/06/23 10:09:44;;;;;;;12.32;2.97;;;;;;;34.02;37.19;98711.75;5157771;28;20080;-73
2022/06/23 10:13:05;;;;;;;14.45;2.63;;;;;;;33.75;37.55;98714.44;5157631;28;20155;-71
2022/06/23 10:16:06;;;;;;;10.85;2.88;;;;;;;33.62;35.98;98719.63;5159724;28;20065;-72
2022/06/23 10:19:40;;;;;;;15.85;3.15;;;;;;;33.73;37.68;98708.44;5158669;28;20049;-74
2022/06/23 10:22:53;;;;;;;11.57;2.50;;;;;;;34.20;35.78;98701.75;5151139;28;20061;-70
2022/06/23 10:26:00;;;;;;;11.45;3.80;;;;;;;34.04;38.44;98706.78;5159292;28;20050;-70
2022/06/23 10:29:20;;;;;;;11.05;3.10;;;;;;;33.44;37.04;98706.69;5138222;28;20156;-72
2022/06/23 10:32:50;;;;;;;9.23;3.55;;;;;;;33.94;37.27;98703.34;5152854;28;20582;-71
2022/06/23 10:36:02;;;;;;;13.93;3.42;;;;;;;34.22;37.20;98695.97;5160311;28;20212;-72
2022/06/23 10:39:16;;;;;;;5.93;2.80;;;;;;;34.16;35.73;98699.94;5159608;28;20097;-69
2022/06/23 10:42:38;;;;;;;13.18;3.22;;;;;;;34.55;37.31;98682.91;5157808;28;20062;-72
2022/06/23 10:45:49;;;;;;;12.45;3.20;;;;;;;34.55;35.56;98689.22;5153257;28;20095;-69
2022/06/23 10:48:46;;;;;;;15.02;3.72;;;;;;;34.91;37.28;98682.88;5153414;28;20184;-70
2022/06/23 10:51:52;;;;;;;12.63;3.28;;;;;;;35.00;37.66;98683.78;5162812;28;20054;-71
2022/06/23 10:54:54;;;;;;;9.70;3.35;;;;;;;35.09;36.34;98680.28;5151902;28;20066;-71
2022/06/23 10:57:54;;;;;;;17.90;3.67;;;;;;;34.75;35.99;98687.13;5147486;28;20047;-71
2022/06/23 11:01:10;;;;;;;11.23;3.05;;;;;;;34.80;35.77;98681.47;5145507;28;20418;-70
2022/06/23 11:04:23;;;;;;;16.40;3.97;;;;;;;34.47;34.14;98676.16;5147747;28;20074;-69
2022/06/23 11:07:51;;;;;;;14.52;3.00;;;;;;;34.38;34.01;98667.00;5156259;28;20614;-71
2022/06/23 11:11:04;;;;;;;9.60;2.78;;;;;;;33.63;35.42;98655.25;5152977;28;20074;-70
2022/06/23 11:14:15;;;;;;;11.52;3.90;;;;;;;33.97;39.91;98651.28;5148090;28;20118;-70
2022/06/23 11:17:23;;;;;;;14.15;3.75;;;;;;;33.61;36.85;98646.50;5150847;28;20050;-70
2022/06/23 11:20:27;;;;;;;12.20;3.15;;;;;;;33.55;38.15;98638.66;5146315;28;20132;-70
2022/06/23 11:23:34;;;;;;;12.90;3.75;;;;;;;33.43;37.31;98639.91;5148904;28;20081;-70
2022/06/23 11:26:58;;;;;;;13.98;3.42;;;;;;;33.49;38.76;98628.88;5148283;28;20130;-70
2022/06/23 11:30:04;;;;;;;10.45;3.30;;;;;;;33.08;37.55;98633.13;5157702;28;20060;-70
2022/06/23 11:33:30;;;;;;;9.55;3.97;;;;;;;33.40;39.97;98625.97;5159685;28;20562;-69
2022/06/23 11:36:48;;;;;;;12.25;3.33;;;;;;;33.59;38.10;98618.50;5156572;28;20065;-71
2022/06/23 11:39:46;;;;;;;12.02;3.80;;;;;;;32.91;38.62;98619.09;5161171;28;20042;-71
2022/06/23 11:42:43;;;;;;;10.63;3.72;;;;;;;32.64;36.90;98612.38;5155141;28;20050;-71
2022/06/23 11:45:59;;;;;;;17.55;4.78;;;;;;;32.93;36.75;98612.19;5160867;28;20060;-70
2022/06/23 11:48:58;;;;;;;12.02;3.25;;;;;;;33.06;37.07;98618.88;5158566;28;20050;-71
2022/06/23 11:52:12;;;;;;;15.50;4.88;;;;;;;33.09;37.20;98603.72;5157283;28;20097;-71
2022/06/23 11:55:24;;;;;;;16.63;3.90;;;;;;;32.41;36.37;98605.81;5157301;28;20529;-71
2022/06/23 11:58:36;;;;;;;18.70;5.80;;;;;;;32.85;38.05;98607.41;5159095;28;20054;-71
2022/06/23 12:01:28;;;;;;;13.27;5.00;;;;;;;32.86;36.19;98592.53;5159613;28;20157;-70
2022/06/23 12:04:46;;;;;;;13.23;4.90;;;;;;;32.95;38.17;98595.44;5160034;28;20417;-71
2022/06/23 12:08:09;;;;;;;17.20;5.00;;;;;;;33.28;36.51;98584.41;5155976;28;20062;-71
2022/06/23 12:11:00;;;;;;;16.40;4.45;;;;;;;32.68;37.06;98583.22;5158103;28;20072;-70
2022/06/23 12:13:50;;;;;;;12.52;5.47;;;;;;;32.31;38.70;98588.69;5160269;28;20058;-70
2022/06/23 12:17:17;;;;;;;18.02;4.97;;;;;;;32.88;36.97;98587.56;5162668;28;20054;-69
2022/06/23 12:20:23;;;;;;;20.23;5.68;;;;;;;32.95;36.82;98577.03;5158012;28;20054;-68
2022/06/23 12:23:33;;;;;;;15.10;4.43;;;;;;;33.10;37.51;98583.38;5161432;28;20053;-72
2022/06/23 12:26:28;;;;;;;11.50;5.38;;;;;;;32.81;38.23;98580.81;5161652;28;20636;-71
2022/06/23 12:29:56;;;;;;;24.55;4.38;;;;;;;32.58;35.72;98561.41;5160501;28;20054;-69
2022/06/23 12:32:51;;;;;;;14.07;4.20;;;;;;;32.53;36.80;98577.97;5157046;28;20047;-70
2022/06/23 12:35:48;;;;;;;15.63;4.47;;;;;;;32.62;37.43;98567.97;5158253;28;20065;-70
2022/06/23 12:38:48;;;;;;;14.23;4.47;;;;;;;32.84;36.46;98552.75;5144859;28;20652;-71
2022/06/23 12:41:47;;;;;;;12.38;4.22;;;;;;;32.36;37.00;98552.97;5157098;28;20119;-70
2022/06/23 12:45:04;;;;;;;11.27;3.92;;;;;;;32.32;37.05;98554.66;5155124;28;20108;-71
2022/06/23 12:48:21;;;;;;;11.48;4.07;;;;;;;32.38;38.59;98546.03;5157032;28;20437;-73
2022/06/23 12:51:23;;;;;;;14.43;4.68;;;;;;;32.32;36.95;98540.94;5157187;28;20532;-73
2022/06/23 12:54:32;;;;;;;19.65;4.93;;;;;;;31.92;36.89;98538.50;5154102;28;20046;-71
2022/06/23 12:57:51;;;;;;;11.70;4.60;;;;;;;31.12;37.97;98504.31;5158924;28;20113;-69
2022/06/23 13:00:52;;;;;;;14.55;5.00;;;;;;;31.98;36.84;98528.25;5167727;28;20061;-71
2022/06/23 13:03:51;;;;;;;18.83;4.22;;;;;;;31.77;36.61;98524.97;5157948;28;20061;-69
2022/06/23 13:07:00;;;;;;;15.77;6.75;;;;;;;31.93;36.28;98522.88;5158880;28;20069;-72
2022/06/23 13:10:12;;;;;;;9.85;3.67;;;;;;;31.88;34.87;98511.97;5156046;28;20532;-70
2022/06/23 13:13:11;;;;;;;15.07;4.03;;;;;;;31.70;37.40;98513.53;5154114;28;20089;-70
2022/06/23 13:16:28;;;;;;;12.85;5.20;;;;;;;31.97;36.19;98521.97;5157202;28;20189;-72
2022/06/23 13:19:45;;;;;;;14.10;5.10;;;;;;;31.82;37.12;98509.28;5158308;28;20053;-70
2022/06/23 13:23:05;;;;;;;13.90;5.25;;;;;;;31.81;37.79;98504.88;5165193;28;20640;-71
2022/06/23 13:26:11;;;;;;;13.60;4.97;;;;;;;31.85;36.28;98501.53;5161793;28;20249;-70
2022/06/23 13:29:12;;;;;;;18.90;4.70;;;;;;;31.94;35.81;98486.91;5158847;28;20509;-70
2022/06/23 13:32:15;;;;;;;13.13;5.20;;;;;;;31.74;36.57;98479.75;5159602;28;20112;-70
2022/06/23 13:35:27;;;;;;;12.13;4.88;;;;;;;31.94;36.93;98483.34;5162028;28;20188;-70
2022/06/23 13:38:20;;;;;;;14.88;5.20;;;;;;;31.86;37.85;98476.59;5160376;28;20065;-70
2022/06/23 13:41:26;;;;;;;13.25;4.75;;;;;;;31.95;36.49;98476.75;5160157;28;20109;-70
2022/06/23 13:44:54;;;;;;;21.25;5.72;;;;;;;31.94;37.08;98464.16;5159722;28;20066;-70
2022/06/23 13:47:51;;;;;;;18.40;6.65;;;;;;;32.08;37.04;98469.72;5174973;28;20693;-69
2022/06/23 13:50:50;;;;;;;16.25;5.25;;;;;;;31.91;37.21;98462.00;5159907;28;20084;-69
2022/06/23 13:53:54;;;;;;;15.32;5.57;;;;;;;31.80;37.61;98447.63;5157952;28;20109;-69
2022/06/23 13:57:08;;;;;;;17.60;5.07;;;;;;;31.75;36.28;98448.50;5170746;28;20532;-69
2022/06/23 14:00:05;;;;;;;;;;;;;;;31.91;36.53;98440.91;5157797;28;20053;-70
2022/06/23 14:03:27;;;;;;;13.63;5.45;;;;;;;32.15;35.96;98439.97;5161227;28;19948;-69
2022/06/23 14:06:24;;;;;;;20.65;5.28;;;;;;;31.71;36.74;98427.47;5160670;28;20069;-70
2022/06/23 14:09:32;;;;;;;16.40;5.07;;;;;;;31.47;36.44;98420.13;5162549;28;20065;-70
2022/06/23 14:12:32;;;;;;;11.95;4.80;;;;;;;31.93;37.14;98419.50;5161839;28;20057;-70
2022/06/23 14:15:44;;;;;;;16.35;5.10;;;;;;;32.07;35.90;98408.56;5162446;28;20042;-70
2022/06/23 14:18:51;;;;;;;16.15;4.90;;;;;;;31.92;35.85;98376.75;5161822;28;20047;-69